Time;durP1;ratioP1;P1;durP2;ratioP2;P2;SDS_P1;SDS_P2;PMS_P1;PMS_P2;Temp;Humidity;BMP_temperature;BMP_pressure;BME280_temperature;BME280_humidity;BME280_pressure;Samples;Min_cycle;Max_cycle;Signal;HPM_P1;HPM_P2
2023/10/03 00:07:30;;;;;;;19.63;7.05;;;;;;;23.41;100.00;101262.13;20964103;28;20449;-70
2023/10/03 00:17:53;;;;;;;17.42;7.05;;;;;;;23.35;100.00;101252.41;20996814;28;20594;-69
2023/10/03 00:28:19;;;;;;;17.13;8.18;;;;;;;23.34;100.00;101256.03;20973393;28;20048;-69
2023/10/03 00:38:42;;;;;;;18.65;6.65;;;;;;;23.28;100.00;101258.03;20994169;28;20052;-70
2023/10/03 00:49:10;;;;;;;19.25;7.43;;;;;;;23.23;100.00;101258.16;20990355;28;20045;-69
2023/10/03 00:59:33;;;;;;;;;;;;;;;23.20;100.00;101258.25;21020807;28;20048;-69
2023/10/03 01:09:57;;;;;;;20.63;7.10;;;;;;;23.15;100.00;101245.84;20971491;28;19931;-70
2023/10/03 01:20:28;;;;;;;17.55;6.65;;;;;;;23.04;100.00;101241.63;20963856;28;20048;-69
2023/10/03 01:30:53;;;;;;;24.05;7.15;;;;;;;22.98;100.00;101244.47;20982551;28;20075;-69
2023/10/03 01:41:16;;;;;;;16.75;6.63;;;;;;;22.97;100.00;101245.41;20984593;28;20037;-69
2023/10/03 01:51:40;;;;;;;18.00;7.80;;;;;;;23.00;100.00;101231.88;20976459;28;20073;-70
2023/10/03 02:02:03;;;;;;;19.40;6.93;;;;;;;22.95;100.00;101247.28;20977064;28;20515;-68
2023/10/03 02:12:29;;;;;;;22.38;7.25;;;;;;;22.92;100.00;101243.75;20984910;28;20055;-69
2023/10/03 02:22:55;;;;;;;24.98;7.40;;;;;;;22.88;100.00;101256.44;21003332;28;20044;-70
2023/10/03 02:33:22;;;;;;;19.27;6.80;;;;;;;22.83;100.00;101257.50;21023561;28;20053;-69
2023/10/03 02:43:46;;;;;;;17.90;6.70;;;;;;;22.83;100.00;101254.81;20930557;28;20048;-69
2023/10/03 02:54:16;;;;;;;18.88;6.85;;;;;;;22.77;100.00;101263.94;20979947;28;20060;-69
2023/10/03 03:04:41;;;;;;;17.27;7.30;;;;;;;22.70;100.00;101267.69;20992405;28;20492;-69
2023/10/03 03:15:08;;;;;;;19.63;6.35;;;;;;;22.78;100.00;101267.47;20989440;28;20060;-69
2023/10/03 03:25:36;;;;;;;19.48;6.68;;;;;;;22.74;100.00;101263.13;20972825;28;20057;-69
2023/10/03 03:36:01;;;;;;;16.23;6.63;;;;;;;22.71;100.00;101269.41;20972834;28;20063;-70
2023/10/03 03:46:24;;;;;;;19.70;6.90;;;;;;;22.68;100.00;101274.91;20978267;28;20064;-69
2023/10/03 03:56:48;;;;;;;13.77;6.65;;;;;;;22.77;100.00;101285.47;20990407;28;20048;-70
2023/10/03 04:07:11;;;;;;;18.38;6.57;;;;;;;22.78;100.00;101292.59;20991812;28;20384;-69
2023/10/03 04:17:37;;;;;;;18.83;6.43;;;;;;;22.83;100.00;101300.59;20983099;28;20052;-69
2023/10/03 04:27:59;;;;;;;21.23;6.93;;;;;;;22.93;100.00;101308.38;20960732;28;20046;-69
2023/10/03 04:38:24;;;;;;;17.63;5.85;;;;;;;23.00;100.00;101304.59;20970065;28;20102;-69
2023/10/03 04:48:47;;;;;;;23.80;6.38;;;;;;;23.03;100.00;101322.50;20976836;28;20500;-69
2023/10/03 04:59:12;;;;;;;18.25;6.20;;;;;;;22.99;100.00;101343.22;21004207;28;20049;-69
2023/10/03 05:09:34;;;;;;;16.38;5.78;;;;;;;23.15;100.00;101341.00;20978205;28;20449;-68
2023/10/03 05:20:02;;;;;;;20.27;6.60;;;;;;;23.30;100.00;101369.34;20986655;28;20057;-70
2023/10/03 05:30:25;;;;;;;18.80;5.70;;;;;;;23.41;100.00;101378.91;20977277;28;20393;-69
2023/10/03 05:40:49;;;;;;;16.90;5.53;;;;;;;23.43;100.00;101390.50;20968001;28;20044;-70
2023/10/03 05:51:12;;;;;;;14.18;5.35;;;;;;;23.58;100.00;101407.22;21016167;28;20086;-70
2023/10/03 06:01:38;;;;;;;20.27;5.35;;;;;;;23.88;100.00;101416.28;20978216;28;20584;-69
2023/10/03 06:12:00;;;;;;;16.77;6.10;;;;;;;23.93;100.00;101420.59;20981199;28;20040;-69
2023/10/03 06:22:24;;;;;;;17.27;5.88;;;;;;;24.25;100.00;101438.56;20976076;28;20140;-70
2023/10/03 06:32:47;;;;;;;14.07;4.95;;;;;;;24.93;100.00;101435.56;20985020;28;20093;-69
2023/10/03 06:43:12;;;;;;;13.57;4.95;;;;;;;25.55;100.00;101457.72;21000515;28;20058;-70
2023/10/03 06:53:34;;;;;;;17.17;6.13;;;;;;;25.54;100.00;101463.19;20969138;28;20093;-69
2023/10/03 07:04:00;;;;;;;16.90;5.00;;;;;;;25.68;100.00;101464.50;20961339;28;20055;-70
2023/10/03 07:14:22;;;;;;;16.85;5.88;;;;;;;26.05;100.00;101453.25;20947602;28;20496;-70
2023/10/03 07:24:47;;;;;;;21.10;5.63;;;;;;;25.89;100.00;101476.38;20980087;28;20102;-70
2023/10/03 07:35:12;;;;;;;15.50;5.50;;;;;;;26.69;100.00;101483.28;21042210;28;20052;-70
2023/10/03 07:45:37;;;;;;;16.95;5.15;;;;;;;27.14;100.00;101483.28;21008062;28;20500;-70
2023/10/03 07:56:00;;;;;;;12.38;4.75;;;;;;;26.85;97.81;101487.13;20988490;28;20049;-70
2023/10/03 08:06:27;;;;;;;15.35;5.20;;;;;;;27.41;97.36;101485.78;20972341;28;20044;-70
2023/10/03 08:16:51;;;;;;;13.75;4.60;;;;;;;27.87;85.07;101501.84;21016669;28;20076;-70
2023/10/03 08:27:19;;;;;;;13.70;5.20;;;;;;;28.84;78.26;101513.66;20993244;28;20109;-70
2023/10/03 08:37:44;;;;;;;16.48;4.97;;;;;;;28.41;77.32;101509.38;21054392;28;20080;-70
2023/10/03 08:48:09;;;;;;;15.23;5.65;;;;;;;28.61;70.80;101512.97;21001106;28;20076;-70
2023/10/03 08:58:32;;;;;;;12.77;5.13;;;;;;;29.39;66.79;101513.69;21019183;28;20055;-71
2023/10/03 09:09:08;;;;;;;14.65;5.03;;;;;;;29.18;63.82;101521.06;21080586;28;20036;-71
2023/10/03 09:19:44;;;;;;;16.48;4.95;;;;;;;28.80;62.32;101538.38;21009749;28;20098;-70
2023/10/03 09:30:22;;;;;;;15.97;5.30;;;;;;;28.45;64.11;101537.25;21015916;28;20538;-70
2023/10/03 09:40:49;;;;;;;16.67;5.00;;;;;;;28.02;64.78;101544.63;21030613;28;20358;-70
2023/10/03 09:51:13;;;;;;;16.08;4.82;;;;;;;28.24;65.38;101540.94;20962336;28;20143;-70
2023/10/03 10:01:39;;;;;;;13.60;4.90;;;;;;;27.94;64.20;101537.75;21034296;28;20048;-70
2023/10/03 10:12:28;;;;;;;16.23;5.43;;;;;;;28.47;66.17;101527.22;20997342;28;20052;-70
2023/10/03 10:23:16;;;;;;;19.63;5.10;;;;;;;28.20;62.51;101537.50;20999648;28;20329;-70
2023/10/03 10:33:41;;;;;;;15.32;5.25;;;;;;;27.88;62.03;101527.16;20995768;28;20073;-70
2023/10/03 10:44:13;;;;;;;16.48;4.80;;;;;;;27.96;62.71;101528.56;20991501;28;20056;-70
2023/10/03 10:54:39;;;;;;;19.58;5.22;;;;;;;27.34;64.27;101525.84;20946933;28;20056;-69
2023/10/03 11:05:02;;;;;;;18.58;5.40;;;;;;;27.16;67.69;101529.31;20937274;28;20171;-69
2023/10/03 11:15:27;;;;;;;16.85;5.13;;;;;;;27.43;67.92;101535.44;20954119;28;20219;-69
2023/10/03 11:25:57;;;;;;;13.35;5.10;;;;;;;27.77;64.50;101524.91;20951928;28;20135;-68
2023/10/03 11:36:22;;;;;;;15.25;4.32;;;;;;;27.80;61.69;101515.75;20955154;28;20519;-68
2023/10/03 11:46:46;;;;;;;13.98;4.45;;;;;;;27.34;64.43;101507.72;20959746;28;20123;-70
2023/10/03 11:57:11;;;;;;;14.57;4.80;;;;;;;27.12;67.36;101505.97;20975166;28;20052;-68
2023/10/03 12:07:34;;;;;;;13.38;4.90;;;;;;;27.04;69.02;101510.84;20994545;28;20041;-69
2023/10/03 12:18:00;;;;;;;19.88;4.80;;;;;;;26.79;70.37;101516.31;20977982;28;20053;-68
2023/10/03 12:28:22;;;;;;;18.10;5.28;;;;;;;26.64;73.16;101511.50;20993485;28;20076;-69
2023/10/03 12:38:50;;;;;;;13.77;4.63;;;;;;;26.42;73.46;101525.88;20997443;28;20397;-68
2023/10/03 12:49:13;;;;;;;15.93;5.00;;;;;;;26.48;75.02;101519.31;20983527;28;20056;-69
2023/10/03 12:59:38;;;;;;;16.25;4.78;;;;;;;26.63;76.14;101510.63;20955042;28;20051;-70
2023/10/03 13:10:03;;;;;;;19.63;5.45;;;;;;;26.62;75.22;101503.44;20981767;28;20515;-68
2023/10/03 13:20:28;;;;;;;19.85;5.78;;;;;;;26.41;77.11;101483.47;20975569;28;20044;-69
2023/10/03 13:30:51;;;;;;;19.38;5.38;;;;;;;26.18;79.29;101486.16;20972960;28;20052;-70
2023/10/03 13:41:16;;;;;;;17.02;5.05;;;;;;;26.00;81.06;101497.63;20979605;28;20048;-69
2023/10/03 13:51:38;;;;;;;13.20;5.22;;;;;;;25.98;82.45;101504.94;20961692;28;20408;-69
2023/10/03 14:02:02;;;;;;;12.93;4.43;;;;;;;26.07;83.53;101500.06;20999719;28;20106;-70
2023/10/03 14:12:25;;;;;;;13.63;4.70;;;;;;;26.20;80.32;101500.50;21063865;28;20055;-69
2023/10/03 14:22:51;;;;;;;17.65;5.05;;;;;;;26.05;77.10;101510.09;21010505;28;20048;-69
2023/10/03 14:33:14;;;;;;;12.50;4.05;;;;;;;25.70;76.94;101532.09;20995837;28;20053;-69
2023/10/03 14:43:40;;;;;;;15.05;4.60;;;;;;;25.40;79.27;101534.84;20972992;28;20040;-69
2023/10/03 14:54:03;;;;;;;18.63;5.85;;;;;;;25.29;79.61;101528.94;21019458;28;20044;-69
2023/10/03 15:04:27;;;;;;;16.38;5.10;;;;;;;25.05;82.10;101531.56;20974261;28;20036;-69
2023/10/03 15:14:50;;;;;;;16.65;4.90;;;;;;;24.87;85.43;101541.97;20964292;28;20090;-69
2023/10/03 15:25:15;;;;;;;16.95;5.05;;;;;;;24.68;88.49;101548.00;20980135;28;20048;-68
2023/10/03 15:35:38;;;;;;;15.20;5.32;;;;;;;24.45;88.22;101554.06;20958786;28;20058;-69
2023/10/03 15:46:02;;;;;;;16.27;5.80;;;;;;;24.16;88.75;101552.13;20959065;28;20145;-69
2023/10/03 15:56:25;;;;;;;14.95;5.88;;;;;;;23.79;95.15;101569.34;20977938;28;20114;-68
2023/10/03 16:06:49;;;;;;;17.80;5.47;;;;;;;23.48;99.71;101570.16;20972143;28;20488;-68
2023/10/03 16:17:11;;;;;;;16.65;5.22;;;;;;;23.32;100.00;101578.56;20967266;28;20060;-68
2023/10/03 16:27:37;;;;;;;17.48;6.03;;;;;;;23.25;100.00;101586.84;20948870;28;20163;-67
2023/10/03 16:37:59;;;;;;;17.75;5.63;;;;;;;23.10;100.00;101589.91;20977438;28;20205;-68
2023/10/03 16:48:23;;;;;;;16.02;5.57;;;;;;;23.08;100.00;101589.94;20949744;28;20048;-67
2023/10/03 16:58:46;;;;;;;16.45;5.68;;;;;;;23.04;100.00;101602.56;20949244;28;20041;-67
2023/10/03 17:09:12;;;;;;;15.82;4.90;;;;;;;22.99;100.00;101607.19;20980334;28;20056;-67
2023/10/03 17:19:35;;;;;;;17.48;5.57;;;;;;;22.93;100.00;101618.09;20958300;28;20052;-67
2023/10/03 17:29:59;;;;;;;14.75;5.63;;;;;;;22.86;100.00;101615.56;20939323;28;20056;-67
2023/10/03 17:40:25;;;;;;;16.23;5.47;;;;;;;22.81;100.00;101631.81;20955725;28;20050;-67
2023/10/03 17:50:51;;;;;;;16.20;5.60;;;;;;;22.83;100.00;101648.84;21005781;28;20045;-67
2023/10/03 18:01:21;;;;;;;17.13;5.18;;;;;;;22.75;100.00;101653.50;20967861;28;20047;-68
2023/10/03 18:11:46;;;;;;;16.33;5.53;;;;;;;22.64;100.00;101655.47;20990431;28;20063;-67
2023/10/03 18:22:09;;;;;;;15.68;6.07;;;;;;;22.59;100.00;101673.50;20958348;28;20044;-68
2023/10/03 18:32:33;;;;;;;21.63;7.45;;;;;;;22.59;100.00;101670.81;20972754;28;20096;-69
2023/10/03 18:42:56;;;;;;;12.55;5.20;;;;;;;22.52;100.00;101691.56;20962440;28;20122;-69
2023/10/03 18:53:20;;;;;;;17.13;6.07;;;;;;;22.45;100.00;101686.38;20964151;28;20090;-68
2023/10/03 19:03:43;;;;;;;13.80;5.25;;;;;;;22.35;100.00;101682.03;20955707;28;20060;-68
2023/10/03 19:14:07;;;;;;;24.48;13.45;;;;;;;22.26;100.00;101680.41;20970283;28;20643;-68
2023/10/03 19:24:30;;;;;;;16.08;7.60;;;;;;;22.19;100.00;101674.25;20987868;28;20044;-68
2023/10/03 19:34:55;;;;;;;16.92;6.13;;;;;;;22.11;100.00;101683.38;20963282;28;20052;-67
2023/10/03 19:45:17;;;;;;;17.55;5.68;;;;;;;22.03;100.00;101680.81;20983119;28;20079;-68
2023/10/03 19:55:41;;;;;;;15.82;5.90;;;;;;;21.96;100.00;101684.53;20961778;28;20484;-68
2023/10/03 20:06:08;;;;;;;15.25;5.75;;;;;;;21.91;100.00;101681.00;20940241;28;20052;-69
2023/10/03 20:16:32;;;;;;;15.00;6.00;;;;;;;21.86;100.00;101677.47;20919192;28;20056;-68
2023/10/03 20:26:55;;;;;;;19.13;6.28;;;;;;;21.81;100.00;101680.25;20950449;28;20726;-67
2023/10/03 20:37:21;;;;;;;14.85;5.75;;;;;;;21.76;100.00;101675.84;20971705;28;20064;-67
2023/10/03 20:47:44;;;;;;;14.77;6.03;;;;;;;21.68;100.00;101678.66;21008455;28;20064;-68
2023/10/03 20:58:09;;;;;;;14.25;5.75;;;;;;;21.67;100.00;101678.66;20926995;28;20151;-68
2023/10/03 21:08:31;;;;;;;18.38;6.28;;;;;;;21.61;100.00;101666.22;20985901;28;20055;-68
2023/10/03 21:18:56;;;;;;;19.67;5.45;;;;;;;21.61;100.00;101668.00;20947013;28;20056;-68
2023/10/03 21:29:18;;;;;;;15.85;5.97;;;;;;;21.58;100.00;101658.22;20982918;28;20055;-68
2023/10/03 21:39:43;;;;;;;22.13;6.53;;;;;;;21.57;100.00;101667.19;20928466;28;20080;-68
2023/10/03 21:50:06;;;;;;;17.70;6.05;;;;;;;21.55;100.00;101654.69;20999493;28;20071;-68
2023/10/03 22:00:38;;;;;;;20.30;6.57;;;;;;;21.52;100.00;101646.69;20937724;28;20040;-67
2023/10/03 22:11:01;;;;;;;18.92;5.95;;;;;;;21.46;100.00;101648.53;21023025;28;20053;-68
2023/10/03 22:21:25;;;;;;;18.05;5.65;;;;;;;21.39;100.00;101652.25;21003852;28;20118;-68
2023/10/03 22:31:48;;;;;;;20.83;6.68;;;;;;;21.36;100.00;101656.75;20964002;28;20063;-67
2023/10/03 22:42:13;;;;;;;17.38;5.90;;;;;;;21.30;100.00;101647.00;20978457;28;20044;-68
2023/10/03 22:52:36;;;;;;;14.95;5.80;;;;;;;21.30;100.00;101638.94;20991042;28;20536;-69
2023/10/03 23:03:01;;;;;;;20.50;5.85;;;;;;;21.28;100.00;101646.13;20932050;28;20053;-67
2023/10/03 23:13:25;;;;;;;20.60;6.00;;;;;;;21.22;100.00;101659.63;20937137;28;20056;-68
2023/10/03 23:23:49;;;;;;;23.95;5.88;;;;;;;21.24;100.00;101651.56;21001723;28;20049;-68
2023/10/03 23:34:15;;;;;;;17.52;5.53;;;;;;;21.21;100.00;101652.47;20956788;28;20055;-67
2023/10/03 23:44:43;;;;;;;21.52;6.40;;;;;;;21.21;100.00;101641.72;20993492;28;20231;-67
2023/10/03 23:55:11;;;;;;;20.37;6.90;;;;;;;21.20;100.00;101636.41;20982230;28;20121;-68
